Bigbee, Alabama
Current Conditions -  °F | °C
As of 12:58 AM on Friday 19 Dec 2014 (Local Time) from KMEI Reporting Station
Overcast Overcast  
Wind Chill: 44°   Ceiling: 3300
Heat Index: 44°   Visibility: 10mi
Dew Point: 39°   Wind: 3mph
Humidity: 82%   Direction: 350°N
Pressure: 30.19"   Gusts: NA
Location:  31.6272°N, 88.354°W
Report Text: KMEI 190658Z AUTO 35003KT 10SM OVC033 07/04 A3019 RMK AO2 SLP223 T00670039
Loading
Personal Weather Stations






























Interactive Weather Map New forecast layout! Learn more

10-Day Weather Forecast

Advertisements
Track Severe Weather on mobile